sensor_id;sensor_type;location;lat;lon;timestamp;P1;durP1;ratioP1;P2;durP2;ratioP2
56712;SDS011;42589;45.536;9.032;2022-08-01T00:01:36;7.25;;;3.38;;
56712;SDS011;42589;45.536;9.032;2022-08-01T00:05:38;4.75;;;3.25;;
56712;SDS011;42589;45.536;9.032;2022-08-01T00:09:37;6.55;;;3.60;;
56712;SDS011;42589;45.536;9.032;2022-08-01T00:13:44;4.50;;;3.55;;
56712;SDS011;42589;45.536;9.032;2022-08-01T00:17:44;5.60;;;3.75;;
56712;SDS011;42589;45.536;9.032;2022-08-01T00:21:43;4.90;;;3.40;;
56712;SDS011;42589;45.536;9.032;2022-08-01T00:25:42;6.30;;;3.83;;
56712;SDS011;42589;45.536;9.032;2022-08-01T00:29:42;6.47;;;3.75;;
56712;SDS011;42589;45.536;9.032;2022-08-01T00:33:41;3.90;;;3.30;;
56712;SDS011;42589;45.536;9.032;2022-08-01T00:37:40;4.32;;;3.47;;
56712;SDS011;42589;45.536;9.032;2022-08-01T00:41:39;6.13;;;3.40;;
56712;SDS011;42589;45.536;9.032;2022-08-01T00:45:39;8.38;;;3.60;;
56712;SDS011;42589;45.536;9.032;2022-08-01T00:49:38;3.90;;;3.03;;
56712;SDS011;42589;45.536;9.032;2022-08-01T00:53:38;6.10;;;3.53;;
56712;SDS011;42589;45.536;9.032;2022-08-01T00:57:38;6.28;;;3.50;;
56712;SDS011;42589;45.536;9.032;2022-08-01T01:01:38;5.10;;;3.38;;
56712;SDS011;42589;45.536;9.032;2022-08-01T01:05:44;5.82;;;3.42;;
56712;SDS011;42589;45.536;9.032;2022-08-01T01:14:00;4.60;;;3.58;;
56712;SDS011;42589;45.536;9.032;2022-08-01T01:26:40;5.00;;;3.67;;
56712;SDS011;42589;45.536;9.032;2022-08-01T01:31:00;6.55;;;3.70;;
56712;SDS011;42589;45.536;9.032;2022-08-01T01:35:24;4.05;;;3.47;;
56712;SDS011;42589;45.536;9.032;2022-08-01T01:39:26;5.72;;;4.03;;
56712;SDS011;42589;45.536;9.032;2022-08-01T01:43:29;5.80;;;3.72;;
56712;SDS011;42589;45.536;9.032;2022-08-01T01:47:30;5.13;;;4.25;;
56712;SDS011;42589;45.536;9.032;2022-08-01T01:51:31;6.18;;;3.30;;
56712;SDS011;42589;45.536;9.032;2022-08-01T01:55:32;4.70;;;3.50;;
56712;SDS011;42589;45.536;9.032;2022-08-01T01:59:33;5.47;;;3.60;;
56712;SDS011;42589;45.536;9.032;2022-08-01T02:03:34;5.82;;;3.45;;
56712;SDS011;42589;45.536;9.032;2022-08-01T02:07:40;4.80;;;3.40;;
56712;SDS011;42589;45.536;9.032;2022-08-01T02:11:41;4.38;;;3.47;;
56712;SDS011;42589;45.536;9.032;2022-08-01T02:15:42;4.85;;;3.80;;
56712;SDS011;42589;45.536;9.032;2022-08-01T02:19:44;3.90;;;3.42;;
56712;SDS011;42589;45.536;9.032;2022-08-01T02:23:45;6.70;;;3.10;;
56712;SDS011;42589;45.536;9.032;2022-08-01T02:27:59;5.13;;;3.25;;
56712;SDS011;42589;45.536;9.032;2022-08-01T02:32:02;6.47;;;3.03;;
56712;SDS011;42589;45.536;9.032;2022-08-01T02:36:09;7.65;;;3.28;;
56712;SDS011;42589;45.536;9.032;2022-08-01T02:40:09;3.63;;;3.00;;
56712;SDS011;42589;45.536;9.032;2022-08-01T02:44:14;6.90;;;3.05;;
56712;SDS011;42589;45.536;9.032;2022-08-01T02:48:18;8.20;;;2.97;;
56712;SDS011;42589;45.536;9.032;2022-08-01T02:52:20;4.95;;;3.28;;
56712;SDS011;42589;45.536;9.032;2022-08-01T02:56:20;5.18;;;3.47;;
56712;SDS011;42589;45.536;9.032;2022-08-01T03:00:21;7.10;;;3.33;;
56712;SDS011;42589;45.536;9.032;2022-08-01T03:04:23;4.90;;;3.38;;
56712;SDS011;42589;45.536;9.032;2022-08-01T03:08:24;7.65;;;3.88;;
56712;SDS011;42589;45.536;9.032;2022-08-01T03:12:27;6.75;;;3.25;;
56712;SDS011;42589;45.536;9.032;2022-08-01T03:16:27;5.00;;;3.22;;
56712;SDS011;42589;45.536;9.032;2022-08-01T03:20:28;10.60;;;3.47;;
56712;SDS011;42589;45.536;9.032;2022-08-01T03:24:29;7.07;;;3.10;;
56712;SDS011;42589;45.536;9.032;2022-08-01T03:28:31;4.38;;;2.90;;
56712;SDS011;42589;45.536;9.032;2022-08-01T03:32:32;5.85;;;2.83;;
56712;SDS011;42589;45.536;9.032;2022-08-01T03:36:32;3.85;;;3.42;;
56712;SDS011;42589;45.536;9.032;2022-08-01T03:40:39;5.75;;;3.47;;
56712;SDS011;42589;45.536;9.032;2022-08-01T03:44:41;5.30;;;3.50;;
56712;SDS011;42589;45.536;9.032;2022-08-01T03:48:48;3.95;;;3.50;;
56712;SDS011;42589;45.536;9.032;2022-08-01T03:52:50;7.30;;;3.83;;
56712;SDS011;42589;45.536;9.032;2022-08-01T03:56:52;8.32;;;3.95;;
56712;SDS011;42589;45.536;9.032;2022-08-01T04:00:52;5.90;;;3.40;;
56712;SDS011;42589;45.536;9.032;2022-08-01T04:04:51;7.90;;;3.85;;
56712;SDS011;42589;45.536;9.032;2022-08-01T04:08:54;10.07;;;3.50;;
56712;SDS011;42589;45.536;9.032;2022-08-01T04:12:54;10.27;;;3.58;;
56712;SDS011;42589;45.536;9.032;2022-08-01T04:16:55;9.00;;;3.45;;
56712;SDS011;42589;45.536;9.032;2022-08-01T04:20:59;4.63;;;3.22;;
56712;SDS011;42589;45.536;9.032;2022-08-01T04:24:59;5.35;;;3.40;;
56712;SDS011;42589;45.536;9.032;2022-08-01T04:29:00;5.03;;;3.28;;
56712;SDS011;42589;45.536;9.032;2022-08-01T04:33:01;3.63;;;2.70;;
56712;SDS011;42589;45.536;9.032;2022-08-01T04:37:03;8.30;;;3.60;;
56712;SDS011;42589;45.536;9.032;2022-08-01T04:41:04;4.30;;;3.40;;
56712;SDS011;42589;45.536;9.032;2022-08-01T04:45:06;4.43;;;3.00;;
56712;SDS011;42589;45.536;9.032;2022-08-01T04:49:08;5.35;;;2.83;;
56712;SDS011;42589;45.536;9.032;2022-08-01T04:53:14;7.55;;;3.90;;
56712;SDS011;42589;45.536;9.032;2022-08-01T04:57:14;4.88;;;3.50;;
56712;SDS011;42589;45.536;9.032;2022-08-01T05:01:17;7.55;;;4.28;;
56712;SDS011;42589;45.536;9.032;2022-08-01T05:05:17;4.75;;;3.15;;
56712;SDS011;42589;45.536;9.032;2022-08-01T05:09:17;4.28;;;3.45;;
56712;SDS011;42589;45.536;9.032;2022-08-01T05:13:16;5.88;;;3.40;;
56712;SDS011;42589;45.536;9.032;2022-08-01T05:17:16;5.65;;;3.70;;
56712;SDS011;42589;45.536;9.032;2022-08-01T05:21:16;3.97;;;3.50;;
56712;SDS011;42589;45.536;9.032;2022-08-01T05:25:17;3.90;;;3.60;;
56712;SDS011;42589;45.536;9.032;2022-08-01T05:29:17;5.80;;;4.15;;
56712;SDS011;42589;45.536;9.032;2022-08-01T05:33:17;7.45;;;4.07;;
56712;SDS011;42589;45.536;9.032;2022-08-01T05:37:17;8.32;;;4.65;;
56712;SDS011;42589;45.536;9.032;2022-08-01T05:41:16;4.45;;;3.80;;
56712;SDS011;42589;45.536;9.032;2022-08-01T05:45:16;6.20;;;3.28;;
56712;SDS011;42589;45.536;9.032;2022-08-01T05:49:16;3.90;;;2.78;;
56712;SDS011;42589;45.536;9.032;2022-08-01T05:53:15;3.95;;;2.80;;
56712;SDS011;42589;45.536;9.032;2022-08-01T05:57:14;3.33;;;2.42;;
56712;SDS011;42589;45.536;9.032;2022-08-01T06:01:14;4.32;;;2.10;;
56712;SDS011;42589;45.536;9.032;2022-08-01T06:05:13;2.55;;;1.98;;
56712;SDS011;42589;45.536;9.032;2022-08-01T06:09:14;3.05;;;2.17;;
56712;SDS011;42589;45.536;9.032;2022-08-01T06:13:13;5.10;;;2.20;;
56712;SDS011;42589;45.536;9.032;2022-08-01T06:17:13;4.75;;;2.10;;
56712;SDS011;42589;45.536;9.032;2022-08-01T06:21:12;5.43;;;2.38;;
56712;SDS011;42589;45.536;9.032;2022-08-01T06:25:12;5.13;;;2.28;;
56712;SDS011;42589;45.536;9.032;2022-08-01T06:29:11;2.72;;;2.00;;
56712;SDS011;42589;45.536;9.032;2022-08-01T06:33:10;3.75;;;2.33;;
56712;SDS011;42589;45.536;9.032;2022-08-01T06:37:09;5.50;;;2.25;;
56712;SDS011;42589;45.536;9.032;2022-08-01T06:41:09;4.97;;;2.40;;
56712;SDS011;42589;45.536;9.032;2022-08-01T06:45:09;4.35;;;2.60;;
56712;SDS011;42589;45.536;9.032;2022-08-01T06:49:09;4.55;;;2.53;;
56712;SDS011;42589;45.536;9.032;2022-08-01T06:53:09;4.15;;;2.92;;
56712;SDS011;42589;45.536;9.032;2022-08-01T06:57:09;5.85;;;2.97;;
56712;SDS011;42589;45.536;9.032;2022-08-01T07:01:29;8.30;;;3.15;;
56712;SDS011;42589;45.536;9.032;2022-08-01T07:05:28;4.88;;;2.78;;
56712;SDS011;42589;45.536;9.032;2022-08-01T07:09:28;4.00;;;2.63;;
56712;SDS011;42589;45.536;9.032;2022-08-01T07:13:27;5.43;;;2.90;;
56712;SDS011;42589;45.536;9.032;2022-08-01T07:17:26;7.85;;;3.13;;
56712;SDS011;42589;45.536;9.032;2022-08-01T07:21:26;5.95;;;2.95;;
56712;SDS011;42589;45.536;9.032;2022-08-01T07:25:26;4.75;;;2.83;;
56712;SDS011;42589;45.536;9.032;2022-08-01T07:29:29;4.75;;;3.20;;
56712;SDS011;42589;45.536;9.032;2022-08-01T07:33:29;5.53;;;3.00;;
56712;SDS011;42589;45.536;9.032;2022-08-01T07:37:28;4.70;;;2.80;;
56712;SDS011;42589;45.536;9.032;2022-08-01T07:41:27;5.28;;;2.72;;
56712;SDS011;42589;45.536;9.032;2022-08-01T07:45:27;6.25;;;2.95;;
56712;SDS011;42589;45.536;9.032;2022-08-01T07:49:26;9.18;;;3.55;;
56712;SDS011;42589;45.536;9.032;2022-08-01T07:53:26;5.72;;;3.00;;
56712;SDS011;42589;45.536;9.032;2022-08-01T07:57:27;5.60;;;2.60;;
56712;SDS011;42589;45.536;9.032;2022-08-01T08:01:28;4.93;;;3.20;;
56712;SDS011;42589;45.536;9.032;2022-08-01T08:05:28;7.15;;;3.15;;
56712;SDS011;42589;45.536;9.032;2022-08-01T08:09:28;7.68;;;2.90;;
56712;SDS011;42589;45.536;9.032;2022-08-01T08:13:27;5.65;;;3.17;;
56712;SDS011;42589;45.536;9.032;2022-08-01T08:17:27;6.95;;;2.90;;
56712;SDS011;42589;45.536;9.032;2022-08-01T08:21:26;5.18;;;2.90;;
56712;SDS011;42589;45.536;9.032;2022-08-01T08:25:26;6.30;;;2.95;;
56712;SDS011;42589;45.536;9.032;2022-08-01T08:29:27;3.88;;;2.50;;
56712;SDS011;42589;45.536;9.032;2022-08-01T08:33:26;6.95;;;4.53;;
56712;SDS011;42589;45.536;9.032;2022-08-01T08:37:26;7.85;;;3.13;;
56712;SDS011;42589;45.536;9.032;2022-08-01T08:41:28;4.47;;;3.00;;
56712;SDS011;42589;45.536;9.032;2022-08-01T08:45:28;6.50;;;2.88;;
56712;SDS011;42589;45.536;9.032;2022-08-01T08:49:28;3.85;;;2.92;;
56712;SDS011;42589;45.536;9.032;2022-08-01T08:53:28;5.65;;;2.80;;
56712;SDS011;42589;45.536;9.032;2022-08-01T08:57:30;4.22;;;2.63;;
56712;SDS011;42589;45.536;9.032;2022-08-01T09:01:34;5.10;;;2.80;;
56712;SDS011;42589;45.536;9.032;2022-08-01T09:05:33;3.60;;;2.63;;
56712;SDS011;42589;45.536;9.032;2022-08-01T09:09:32;3.63;;;2.75;;
56712;SDS011;42589;45.536;9.032;2022-08-01T09:13:32;4.55;;;3.10;;
56712;SDS011;42589;45.536;9.032;2022-08-01T09:17:39;9.68;;;2.72;;
56712;SDS011;42589;45.536;9.032;2022-08-01T09:22:01;4.80;;;2.55;;
56712;SDS011;42589;45.536;9.032;2022-08-01T09:26:07;2.95;;;2.60;;
56712;SDS011;42589;45.536;9.032;2022-08-01T09:30:18;5.93;;;2.88;;
56712;SDS011;42589;45.536;9.032;2022-08-01T09:34:26;5.32;;;2.90;;
56712;SDS011;42589;45.536;9.032;2022-08-01T09:38:34;3.38;;;2.55;;
56712;SDS011;42589;45.536;9.032;2022-08-01T09:42:36;4.65;;;2.70;;
56712;SDS011;42589;45.536;9.032;2022-08-01T09:46:35;5.80;;;3.05;;
56712;SDS011;42589;45.536;9.032;2022-08-01T09:50:38;5.03;;;2.75;;
56712;SDS011;42589;45.536;9.032;2022-08-01T09:54:39;5.55;;;2.60;;
56712;SDS011;42589;45.536;9.032;2022-08-01T09:58:59;5.50;;;2.55;;
56712;SDS011;42589;45.536;9.032;2022-08-01T10:02:59;6.40;;;2.47;;
56712;SDS011;42589;45.536;9.032;2022-08-01T10:07:06;4.15;;;2.53;;
56712;SDS011;42589;45.536;9.032;2022-08-01T10:11:09;4.95;;;2.70;;
56712;SDS011;42589;45.536;9.032;2022-08-01T10:15:09;3.22;;;2.80;;
56712;SDS011;42589;45.536;9.032;2022-08-01T10:19:10;4.60;;;2.58;;
56712;SDS011;42589;45.536;9.032;2022-08-01T10:23:10;4.75;;;2.60;;
56712;SDS011;42589;45.536;9.032;2022-08-01T10:27:11;3.88;;;2.53;;
56712;SDS011;42589;45.536;9.032;2022-08-01T10:31:17;3.30;;;2.97;;
56712;SDS011;42589;45.536;9.032;2022-08-01T10:35:17;8.52;;;2.90;;
56712;SDS011;42589;45.536;9.032;2022-08-01T10:39:21;4.40;;;2.80;;
56712;SDS011;42589;45.536;9.032;2022-08-01T10:43:22;6.13;;;2.65;;
56712;SDS011;42589;45.536;9.032;2022-08-01T10:47:25;4.53;;;2.50;;
56712;SDS011;42589;45.536;9.032;2022-08-01T10:51:29;4.65;;;2.83;;
56712;SDS011;42589;45.536;9.032;2022-08-01T10:55:29;7.38;;;2.78;;
56712;SDS011;42589;45.536;9.032;2022-08-01T10:59:51;6.18;;;2.88;;
56712;SDS011;42589;45.536;9.032;2022-08-01T11:08:23;3.20;;;2.47;;
56712;SDS011;42589;45.536;9.032;2022-08-01T11:12:37;4.35;;;2.78;;
56712;SDS011;42589;45.536;9.032;2022-08-01T11:16:55;3.58;;;2.67;;
56712;SDS011;42589;45.536;9.032;2022-08-01T11:20:56;3.80;;;2.33;;
56712;SDS011;42589;45.536;9.032;2022-08-01T11:24:56;3.67;;;2.45;;
56712;SDS011;42589;45.536;9.032;2022-08-01T11:29:28;5.15;;;2.50;;
56712;SDS011;42589;45.536;9.032;2022-08-01T11:37:53;4.53;;;3.00;;
56712;SDS011;42589;45.536;9.032;2022-08-01T11:42:22;5.45;;;2.72;;
56712;SDS011;42589;45.536;9.032;2022-08-01T11:50:50;4.25;;;2.50;;
56712;SDS011;42589;45.536;9.032;2022-08-01T11:55:00;5.03;;;3.05;;
56712;SDS011;42589;45.536;9.032;2022-08-01T11:59:04;6.80;;;2.60;;
56712;SDS011;42589;45.536;9.032;2022-08-01T12:03:12;5.57;;;2.88;;
56712;SDS011;42589;45.536;9.032;2022-08-01T12:07:13;4.32;;;2.60;;
56712;SDS011;42589;45.536;9.032;2022-08-01T12:11:15;6.75;;;2.22;;
56712;SDS011;42589;45.536;9.032;2022-08-01T12:15:19;3.25;;;2.20;;
56712;SDS011;42589;45.536;9.032;2022-08-01T12:19:20;4.72;;;2.42;;
56712;SDS011;42589;45.536;9.032;2022-08-01T12:23:20;3.30;;;2.13;;
56712;SDS011;42589;45.536;9.032;2022-08-01T12:27:28;4.90;;;2.47;;
56712;SDS011;42589;45.536;9.032;2022-08-01T12:31:32;5.22;;;2.00;;
56712;SDS011;42589;45.536;9.032;2022-08-01T12:35:32;2.45;;;2.10;;
56712;SDS011;42589;45.536;9.032;2022-08-01T12:39:32;4.82;;;1.90;;
56712;SDS011;42589;45.536;9.032;2022-08-01T12:43:33;4.45;;;2.25;;
56712;SDS011;42589;45.536;9.032;2022-08-01T12:47:33;2.15;;;1.90;;
56712;SDS011;42589;45.536;9.032;2022-08-01T12:51:33;2.78;;;1.90;;
56712;SDS011;42589;45.536;9.032;2022-08-01T12:55:33;2.08;;;1.55;;
56712;SDS011;42589;45.536;9.032;2022-08-01T12:59:42;5.10;;;1.77;;
56712;SDS011;42589;45.536;9.032;2022-08-01T13:03:57;2.53;;;1.58;;
56712;SDS011;42589;45.536;9.032;2022-08-01T13:07:56;3.42;;;1.80;;
56712;SDS011;42589;45.536;9.032;2022-08-01T13:11:55;2.10;;;1.67;;
56712;SDS011;42589;45.536;9.032;2022-08-01T13:16:03;4.47;;;1.40;;
56712;SDS011;42589;45.536;9.032;2022-08-01T13:20:04;3.03;;;1.38;;
56712;SDS011;42589;45.536;9.032;2022-08-01T13:24:26;2.35;;;1.10;;
56712;SDS011;42589;45.536;9.032;2022-08-01T13:28:28;1.60;;;1.30;;
56712;SDS011;42589;45.536;9.032;2022-08-01T13:32:57;3.90;;;1.10;;
56712;SDS011;42589;45.536;9.032;2022-08-01T13:37:16;1.75;;;1.30;;
56712;SDS011;42589;45.536;9.032;2022-08-01T13:41:35;2.80;;;1.30;;
56712;SDS011;42589;45.536;9.032;2022-08-01T13:45:54;1.42;;;1.08;;
56712;SDS011;42589;45.536;9.032;2022-08-01T13:49:55;1.40;;;1.05;;
56712;SDS011;42589;45.536;9.032;2022-08-01T13:54:13;2.25;;;1.10;;
56712;SDS011;42589;45.536;9.032;2022-08-01T13:58:13;1.83;;;1.27;;
56712;SDS011;42589;45.536;9.032;2022-08-01T14:02:12;1.83;;;1.15;;
56712;SDS011;42589;45.536;9.032;2022-08-01T14:06:12;1.40;;;1.30;;
56712;SDS011;42589;45.536;9.032;2022-08-01T14:10:11;3.03;;;1.50;;
56712;SDS011;42589;45.536;9.032;2022-08-01T14:14:11;3.45;;;1.50;;
56712;SDS011;42589;45.536;9.032;2022-08-01T14:18:10;2.28;;;1.40;;
56712;SDS011;42589;45.536;9.032;2022-08-01T14:22:10;2.17;;;1.05;;
56712;SDS011;42589;45.536;9.032;2022-08-01T14:26:10;1.42;;;1.08;;
56712;SDS011;42589;45.536;9.032;2022-08-01T14:30:09;2.60;;;1.30;;
56712;SDS011;42589;45.536;9.032;2022-08-01T14:34:08;2.30;;;1.00;;
56712;SDS011;42589;45.536;9.032;2022-08-01T14:38:09;1.75;;;1.40;;
56712;SDS011;42589;45.536;9.032;2022-08-01T14:42:08;1.83;;;1.10;;
56712;SDS011;42589;45.536;9.032;2022-08-01T14:46:08;3.63;;;1.30;;
56712;SDS011;42589;45.536;9.032;2022-08-01T14:50:08;1.42;;;1.10;;
56712;SDS011;42589;45.536;9.032;2022-08-01T14:54:08;1.60;;;1.20;;
56712;SDS011;42589;45.536;9.032;2022-08-01T14:58:08;1.65;;;1.10;;
56712;SDS011;42589;45.536;9.032;2022-08-01T15:02:07;1.25;;;0.98;;
56712;SDS011;42589;45.536;9.032;2022-08-01T15:06:07;1.75;;;1.05;;
56712;SDS011;42589;45.536;9.032;2022-08-01T15:10:14;6.30;;;1.40;;
56712;SDS011;42589;45.536;9.032;2022-08-01T15:14:13;2.17;;;1.05;;
56712;SDS011;42589;45.536;9.032;2022-08-01T15:18:13;4.00;;;1.00;;
56712;SDS011;42589;45.536;9.032;2022-08-01T15:22:12;2.45;;;1.10;;
56712;SDS011;42589;45.536;9.032;2022-08-01T15:26:12;1.92;;;1.10;;
56712;SDS011;42589;45.536;9.032;2022-08-01T15:30:15;2.88;;;1.35;;
56712;SDS011;42589;45.536;9.032;2022-08-01T15:34:14;2.28;;;1.02;;
56712;SDS011;42589;45.536;9.032;2022-08-01T15:38:14;2.35;;;1.25;;
56712;SDS011;42589;45.536;9.032;2022-08-01T15:42:14;2.50;;;1.25;;
56712;SDS011;42589;45.536;9.032;2022-08-01T15:46:14;2.83;;;1.05;;
56712;SDS011;42589;45.536;9.032;2022-08-01T15:50:13;1.17;;;0.88;;
56712;SDS011;42589;45.536;9.032;2022-08-01T15:54:12;0.98;;;0.98;;
56712;SDS011;42589;45.536;9.032;2022-08-01T15:58:12;1.27;;;1.10;;
56712;SDS011;42589;45.536;9.032;2022-08-01T16:02:12;1.42;;;0.90;;
56712;SDS011;42589;45.536;9.032;2022-08-01T16:06:11;1.45;;;1.00;;
56712;SDS011;42589;45.536;9.032;2022-08-01T16:10:10;1.65;;;0.90;;
56712;SDS011;42589;45.536;9.032;2022-08-01T16:14:09;2.05;;;0.90;;
56712;SDS011;42589;45.536;9.032;2022-08-01T16:18:09;1.00;;;0.80;;
56712;SDS011;42589;45.536;9.032;2022-08-01T16:22:17;2.63;;;0.80;;
56712;SDS011;42589;45.536;9.032;2022-08-01T16:26:16;2.13;;;0.80;;
56712;SDS011;42589;45.536;9.032;2022-08-01T16:30:15;0.70;;;0.70;;
56712;SDS011;42589;45.536;9.032;2022-08-01T16:34:14;1.77;;;0.70;;
56712;SDS011;42589;45.536;9.032;2022-08-01T16:38:14;2.00;;;0.90;;
56712;SDS011;42589;45.536;9.032;2022-08-01T16:42:14;0.70;;;0.70;;
56712;SDS011;42589;45.536;9.032;2022-08-01T16:46:17;1.88;;;0.70;;
56712;SDS011;42589;45.536;9.032;2022-08-01T16:50:16;1.00;;;0.90;;
56712;SDS011;42589;45.536;9.032;2022-08-01T16:54:15;1.27;;;0.80;;
56712;SDS011;42589;45.536;9.032;2022-08-01T16:58:16;2.10;;;0.80;;
56712;SDS011;42589;45.536;9.032;2022-08-01T17:02:15;2.03;;;0.88;;
56712;SDS011;42589;45.536;9.032;2022-08-01T17:06:14;1.70;;;1.30;;
56712;SDS011;42589;45.536;9.032;2022-08-01T17:10:13;3.08;;;0.90;;
56712;SDS011;42589;45.536;9.032;2022-08-01T17:14:13;2.50;;;0.90;;
56712;SDS011;42589;45.536;9.032;2022-08-01T17:18:13;0.80;;;0.70;;
56712;SDS011;42589;45.536;9.032;2022-08-01T17:22:12;1.05;;;0.75;;
56712;SDS011;42589;45.536;9.032;2022-08-01T17:25:42;1.10;;;0.85;;
56712;SDS011;42589;45.536;9.032;2022-08-01T17:28:49;2.38;;;0.70;;
56712;SDS011;42589;45.536;9.032;2022-08-01T17:31:50;0.65;;;0.63;;
56712;SDS011;42589;45.536;9.032;2022-08-01T17:34:51;1.25;;;0.80;;
56712;SDS011;42589;45.536;9.032;2022-08-01T17:37:52;1.08;;;0.70;;
56712;SDS011;42589;45.536;9.032;2022-08-01T17:40:54;2.17;;;0.90;;
56712;SDS011;42589;45.536;9.032;2022-08-01T17:43:55;2.08;;;0.70;;
56712;SDS011;42589;45.536;9.032;2022-08-01T17:46:56;0.85;;;0.80;;
56712;SDS011;42589;45.536;9.032;2022-08-01T17:49:56;2.75;;;0.77;;
56712;SDS011;42589;45.536;9.032;2022-08-01T17:53:01;0.90;;;0.77;;
56712;SDS011;42589;45.536;9.032;2022-08-01T17:56:01;1.38;;;0.70;;
56712;SDS011;42589;45.536;9.032;2022-08-01T17:59:04;1.00;;;0.90;;
56712;SDS011;42589;45.536;9.032;2022-08-01T18:02:05;1.10;;;1.00;;
56712;SDS011;42589;45.536;9.032;2022-08-01T18:05:06;3.50;;;0.90;;
56712;SDS011;42589;45.536;9.032;2022-08-01T18:11:19;3.08;;;0.85;;
56712;SDS011;42589;45.536;9.032;2022-08-01T18:14:25;1.10;;;1.00;;
56712;SDS011;42589;45.536;9.032;2022-08-01T18:17:26;1.88;;;1.00;;
56712;SDS011;42589;45.536;9.032;2022-08-01T18:20:28;1.95;;;1.00;;
56712;SDS011;42589;45.536;9.032;2022-08-01T18:23:29;1.73;;;1.00;;
56712;SDS011;42589;45.536;9.032;2022-08-01T18:26:30;2.30;;;1.00;;
56712;SDS011;42589;45.536;9.032;2022-08-01T18:29:31;1.92;;;1.05;;
56712;SDS011;42589;45.536;9.032;2022-08-01T18:32:32;2.70;;;1.08;;
56712;SDS011;42589;45.536;9.032;2022-08-01T18:35:33;1.33;;;1.00;;
56712;SDS011;42589;45.536;9.032;2022-08-01T18:38:33;1.40;;;1.08;;
56712;SDS011;42589;45.536;9.032;2022-08-01T18:41:34;1.52;;;1.00;;
56712;SDS011;42589;45.536;9.032;2022-08-01T18:44:36;1.48;;;1.00;;
56712;SDS011;42589;45.536;9.032;2022-08-01T18:47:36;3.47;;;1.10;;
56712;SDS011;42589;45.536;9.032;2022-08-01T18:50:38;1.40;;;1.08;;
56712;SDS011;42589;45.536;9.032;2022-08-01T18:53:38;3.13;;;1.30;;
56712;SDS011;42589;45.536;9.032;2022-08-01T18:56:41;3.60;;;1.48;;
56712;SDS011;42589;45.536;9.032;2022-08-01T18:59:43;2.40;;;1.40;;
56712;SDS011;42589;45.536;9.032;2022-08-01T19:02:44;4.32;;;1.50;;
56712;SDS011;42589;45.536;9.032;2022-08-01T19:05:46;3.88;;;1.70;;
56712;SDS011;42589;45.536;9.032;2022-08-01T19:08:50;2.17;;;1.50;;
56712;SDS011;42589;45.536;9.032;2022-08-01T19:11:52;9.27;;;6.53;;
56712;SDS011;42589;45.536;9.032;2022-08-01T19:14:53;4.68;;;2.10;;
56712;SDS011;42589;45.536;9.032;2022-08-01T19:17:54;3.22;;;1.65;;
56712;SDS011;42589;45.536;9.032;2022-08-01T19:20:56;1.85;;;1.48;;
56712;SDS011;42589;45.536;9.032;2022-08-01T19:23:57;1.88;;;1.50;;
56712;SDS011;42589;45.536;9.032;2022-08-01T19:27:16;4.22;;;1.48;;
56712;SDS011;42589;45.536;9.032;2022-08-01T19:30:23;2.53;;;1.52;;
56712;SDS011;42589;45.536;9.032;2022-08-01T19:33:25;3.83;;;1.50;;
56712;SDS011;42589;45.536;9.032;2022-08-01T19:36:29;3.83;;;1.90;;
56712;SDS011;42589;45.536;9.032;2022-08-01T19:39:33;5.35;;;1.50;;
56712;SDS011;42589;45.536;9.032;2022-08-01T19:42:33;1.70;;;1.58;;
56712;SDS011;42589;45.536;9.032;2022-08-01T19:45:41;3.30;;;1.60;;
56712;SDS011;42589;45.536;9.032;2022-08-01T19:51:46;3.42;;;1.35;;
56712;SDS011;42589;45.536;9.032;2022-08-01T19:54:48;6.07;;;1.98;;
56712;SDS011;42589;45.536;9.032;2022-08-01T19:57:52;5.40;;;2.03;;
56712;SDS011;42589;45.536;9.032;2022-08-01T20:00:52;2.35;;;1.80;;
56712;SDS011;42589;45.536;9.032;2022-08-01T20:03:53;3.47;;;2.10;;
56712;SDS011;42589;45.536;9.032;2022-08-01T20:06:55;3.13;;;2.65;;
56712;SDS011;42589;45.536;9.032;2022-08-01T20:09:56;3.45;;;2.20;;
56712;SDS011;42589;45.536;9.032;2022-08-01T20:12:58;3.53;;;2.40;;
56712;SDS011;42589;45.536;9.032;2022-08-01T20:16:03;3.75;;;2.03;;
56712;SDS011;42589;45.536;9.032;2022-08-01T20:19:04;2.85;;;2.00;;
56712;SDS011;42589;45.536;9.032;2022-08-01T20:22:05;3.90;;;1.98;;
56712;SDS011;42589;45.536;9.032;2022-08-01T20:25:06;2.20;;;1.60;;
56712;SDS011;42589;45.536;9.032;2022-08-01T20:28:09;3.13;;;1.70;;
56712;SDS011;42589;45.536;9.032;2022-08-01T20:31:11;2.65;;;1.40;;
56712;SDS011;42589;45.536;9.032;2022-08-01T20:34:15;3.63;;;1.70;;
56712;SDS011;42589;45.536;9.032;2022-08-01T20:37:17;2.30;;;1.70;;
56712;SDS011;42589;45.536;9.032;2022-08-01T20:40:21;3.30;;;1.73;;
56712;SDS011;42589;45.536;9.032;2022-08-01T20:43:24;3.15;;;1.50;;
56712;SDS011;42589;45.536;9.032;2022-08-01T20:46:26;2.53;;;1.50;;
56712;SDS011;42589;45.536;9.032;2022-08-01T20:49:28;1.75;;;1.30;;
56712;SDS011;42589;45.536;9.032;2022-08-01T20:52:30;6.47;;;1.60;;
56712;SDS011;42589;45.536;9.032;2022-08-01T20:55:44;1.80;;;1.52;;
56712;SDS011;42589;45.536;9.032;2022-08-01T21:05:55;1.50;;;1.40;;
56712;SDS011;42589;45.536;9.032;2022-08-01T21:09:05;2.30;;;1.20;;
56712;SDS011;42589;45.536;9.032;2022-08-01T21:12:19;4.63;;;1.23;;
56712;SDS011;42589;45.536;9.032;2022-08-01T21:15:28;2.00;;;1.27;;
56712;SDS011;42589;45.536;9.032;2022-08-01T21:18:46;2.35;;;1.20;;
56712;SDS011;42589;45.536;9.032;2022-08-01T21:22:09;2.85;;;1.30;;
56712;SDS011;42589;45.536;9.032;2022-08-01T21:25:14;2.90;;;1.25;;
56712;SDS011;42589;45.536;9.032;2022-08-01T21:28:22;2.10;;;1.05;;
56712;SDS011;42589;45.536;9.032;2022-08-01T21:31:24;1.38;;;1.10;;
56712;SDS011;42589;45.536;9.032;2022-08-01T21:34:27;2.85;;;1.58;;
56712;SDS011;42589;45.536;9.032;2022-08-01T21:37:29;2.15;;;1.13;;
56712;SDS011;42589;45.536;9.032;2022-08-01T21:40:31;3.40;;;1.30;;
56712;SDS011;42589;45.536;9.032;2022-08-01T21:43:34;1.27;;;1.10;;
56712;SDS011;42589;45.536;9.032;2022-08-01T21:46:35;2.08;;;1.23;;
56712;SDS011;42589;45.536;9.032;2022-08-01T21:49:37;2.63;;;1.40;;
56712;SDS011;42589;45.536;9.032;2022-08-01T21:52:41;1.48;;;1.17;;
56712;SDS011;42589;45.536;9.032;2022-08-01T21:55:53;2.13;;;1.10;;
56712;SDS011;42589;45.536;9.032;2022-08-01T22:02:16;1.52;;;1.23;;
56712;SDS011;42589;45.536;9.032;2022-08-01T22:05:34;1.48;;;1.30;;
56712;SDS011;42589;45.536;9.032;2022-08-01T22:08:38;1.67;;;1.20;;
56712;SDS011;42589;45.536;9.032;2022-08-01T22:11:44;4.07;;;1.20;;
56712;SDS011;42589;45.536;9.032;2022-08-01T22:14:46;1.35;;;1.25;;
56712;SDS011;42589;45.536;9.032;2022-08-01T22:17:48;2.45;;;1.17;;
56712;SDS011;42589;45.536;9.032;2022-08-01T22:20:50;2.22;;;1.00;;
56712;SDS011;42589;45.536;9.032;2022-08-01T22:23:52;1.50;;;1.10;;
56712;SDS011;42589;45.536;9.032;2022-08-01T22:26:54;1.58;;;1.10;;
56712;SDS011;42589;45.536;9.032;2022-08-01T22:29:56;1.67;;;1.08;;
56712;SDS011;42589;45.536;9.032;2022-08-01T22:33:56;2.05;;;1.15;;
56712;SDS011;42589;45.536;9.032;2022-08-01T22:37:57;2.33;;;1.35;;
56712;SDS011;42589;45.536;9.032;2022-08-01T22:42:17;1.95;;;1.13;;
56712;SDS011;42589;45.536;9.032;2022-08-01T22:50:44;1.67;;;1.17;;
56712;SDS011;42589;45.536;9.032;2022-08-01T22:54:50;2.13;;;1.13;;
56712;SDS011;42589;45.536;9.032;2022-08-01T22:58:04;2.50;;;1.15;;
56712;SDS011;42589;45.536;9.032;2022-08-01T23:02:14;1.52;;;1.35;;
56712;SDS011;42589;45.536;9.032;2022-08-01T23:10:34;1.30;;;1.15;;
56712;SDS011;42589;45.536;9.032;2022-08-01T23:14:35;1.63;;;1.15;;
56712;SDS011;42589;45.536;9.032;2022-08-01T23:18:35;1.65;;;1.38;;
56712;SDS011;42589;45.536;9.032;2022-08-01T23:22:36;1.45;;;1.20;;
56712;SDS011;42589;45.536;9.032;2022-08-01T23:26:36;2.78;;;1.10;;
56712;SDS011;42589;45.536;9.032;2022-08-01T23:30:38;2.97;;;1.30;;
56712;SDS011;42589;45.536;9.032;2022-08-01T23:34:38;2.30;;;1.20;;
56712;SDS011;42589;45.536;9.032;2022-08-01T23:38:37;2.28;;;1.33;;